Latest Weather Observations for Trepell

IDQ60801

Issued at 9:35 pm EST Tuesday 30 September 2014 (issued every 30 minutes, with the page automatically refreshed every 10 minutes)

About weather observations | Map of weather stations | Latest weather observations for QLD | Other Formats
Station Details ID: 037036 Name: TREPELL AIRPORT Lat: -21.84 Lon: 140.89 Height: 266.2 m
Data from the previous 72 hours. | See also: Recent months at Trepell
Date/Time
EST
Temp
°C
App
Temp
°C
Dew
Point
Rel
Hum
%
Delta-T
°C
Wind Press
QNH
hPa
Press
MSL
hPa
Rain
since 9 am
mm
Dir
 
Spd
km/h
Gust
km/h
Spd
kts
Gust
kts
30/09:30pm 26.0 22.3 -0.1 18 12.2 E 9 11 5 6 1015.3 1014.1 0.0
30/09:00pm 26.6 22.8 -0.4 17 12.6 NE 9 9 5 5 1015.0 1013.8 0.0
30/08:30pm 27.7 24.1 0.5 17 13.1 NE 9 11 5 6 1014.7 1013.5 0.0
30/08:00pm 28.7 25.1 0.4 16 13.6 NE 9 13 5 7 1014.3 1013.1 0.0
30/07:30pm 30.0 26.8 0.6 15 14.4 NNE 7 9 4 5 1014.0 1012.8 0.0
30/07:00pm 31.7 28.5 1.0 14 15.3 ENE 7 9 4 5 1013.6 1012.4 0.0
30/06:30pm 33.1 30.1 1.0 13 16.1 NE 6 9 3 5 1013.1 1011.9 0.0
30/06:00pm 34.5 31.5 1.0 12 17.0 E 6 9 3 5 1012.7 1011.4 0.0
30/05:30pm 35.0 30.8 1.4 12 17.2 E 13 19 7 10 1012.5 1011.2 0.0
30/05:00pm 35.4 32.4 1.7 12 17.4 WNW 7 15 4 8 1012.5 1011.2 0.0
30/04:30pm 35.4 32.0 1.7 12 17.3 NNE 9 20 5 11 1012.5 1011.2 0.0
30/04:00pm 35.0 31.7 0.2 11 17.5 NE 7 9 4 5 1012.7 1011.4 0.0
30/03:30pm 35.0 30.9 2.5 13 16.9 N 13 17 7 9 1012.9 1011.6 0.0
30/03:00pm 35.4 30.8 1.7 12 17.3 NNE 15 22 8 12 1013.2 1012.0 0.0
30/02:30pm 34.8 32.0 2.3 13 16.8 SSE 6 13 3 7 1013.6 1012.4 0.0
30/02:00pm 34.0 30.5 3.7 15 16.0 N 11 22 6 12 1014.1 1012.9 0.0
30/01:30pm 34.0 30.2 3.7 15 16.0 NE 13 20 7 11 1014.6 1013.4 0.0
30/01:00pm 33.6 29.1 6.8 19 14.8 N 20 30 11 16 1015.2 1014.0 0.0
30/12:30pm 32.3 27.3 6.5 20 14.1 NNE 22 32 12 17 1016.0 1014.7 0.0
30/12:00pm 32.2 27.8 9.1 24 13.1 NNE 22 37 12 20 1016.6 1015.4 0.0
30/11:30am 31.5 26.4 9.1 25 12.7 NNE 26 35 14 19 1017.2 1016.0 0.0
30/11:00am 30.5 24.9 8.8 26 12.2 NNE 28 43 15 23 1017.6 1016.4 0.0
30/10:30am 29.8 23.4 9.3 28 11.6 NNE 33 41 18 22 1017.8 1016.6 0.0
30/10:00am 29.2 22.7 8.8 28 11.4 NE 33 50 18 27 1017.9 1016.7 0.0
30/09:30am 28.5 20.9 7.7 27 11.4 NE 37 46 20 25 1018.1 1016.9 0.0
30/09:00am 27.6 19.6 7.5 28 10.9 NE 39 48 21 26 1017.9 1016.7 0.0
30/08:30am 26.6 18.5 7.1 29 10.4 NE 39 50 21 27 1017.8 1016.6 0.0
30/08:00am 25.9 18.4 6.5 29 10.2 NE 35 48 19 26 1017.4 1016.2 0.0
30/07:30am 24.8 19.4 6.5 31 9.6 NE 24 43 13 23 1017.1 1015.9 0.0
30/07:00am 23.3 18.4 5.2 31 9.2 NNE 20 28 11 15 1016.7 1015.5 0.0
30/06:30am 21.8 17.7 4.4 32 8.6 NE 15 20 8 11 1016.3 1015.1 0.0
30/06:00am 21.6 17.4 3.8 31 8.7 NE 15 19 8 10 1015.8 1014.6 0.0
30/05:30am 22.7 17.5 3.8 29 9.3 NE 20 24 11 13 1015.4 1014.2 0.0
30/05:00am 22.6 17.6 3.7 29 9.3 NE 19 22 10 12 1014.9 1013.7 0.0
30/04:30am 22.6 17.5 3.2 28 9.4 NE 19 22 10 12 1014.6 1013.4 0.0
30/04:00am 23.1 18.0 3.1 27 9.7 NNE 19 22 10 12 1014.4 1013.2 0.0
30/03:30am 23.0 17.8 2.5 26 9.9 NE 19 22 10 12 1014.2 1013.0 0.0
30/03:00am 23.5 18.3 2.4 25 10.2 NE 19 26 10 14 1014.1 1012.9 0.0
30/02:30am 24.6 19.1 2.1 23 10.9 NE 20 28 11 15 1014.3 1013.1 0.0
30/02:00am 24.7 19.7 1.6 22 11.1 NE 17 22 9 12 1014.5 1013.3 0.0
30/01:30am 24.7 20.0 0.9 21 11.3 NE 15 20 8 11 1014.5 1013.3 0.0
30/01:00am 24.9 19.7 0.4 20 11.5 NE 17 20 9 11 1014.7 1013.5 0.0
30/12:30am 23.5 19.0 -0.1 21 10.9 NE 13 17 7 9 1014.7 1013.5 0.0
30/12:00am 24.1 20.1 0.4 21 11.1 NNE 11 13 6 7 1014.7 1013.5 0.0
 
Date/Time
EST
Temp
°C
App
Temp
°C
Dew
Point
Rel
Hum
%
Delta-T
°C
Wind Press
QNH
hPa
Press
MSL
hPa
Rain
since 9 am
mm
Dir
 
Spd
km/h
Gust
km/h
Spd
kts
Gust
kts
29/11:30pm 25.0 20.7 1.2 21 11.3 NNE 13 15 7 8 1014.7 1013.5 0.0
29/11:00pm 24.5 20.3 -0.6 19 11.5 NNE 11 13 6 7 1014.7 1013.5 0.0
29/10:30pm 24.5 20.3 -0.6 19 11.5 NE 11 13 6 7 1014.7 1013.5 0.0
29/10:00pm 25.5 21.8 0.2 19 11.9 NE 9 13 5 7 1014.7 1013.5 0.0
29/09:30pm 25.5 21.6 -1.3 17 12.2 ENE 9 13 5 7 1014.6 1013.4 0.0
29/09:00pm 26.8 22.8 0.5 18 12.5 NE 11 15 6 8 1014.3 1013.1 0.0
29/08:30pm 28.0 23.5 -0.1 16 13.4 ENE 13 15 7 8 1014.0 1012.8 0.0
29/08:00pm 27.7 23.1 -1.3 15 13.5 NE 13 17 7 9 1013.5 1012.3 0.0
29/07:30pm 29.0 24.8 -1.2 14 14.2 NE 11 13 6 7 1013.1 1011.9 0.0
29/07:00pm 30.9 26.3 -0.7 13 15.2 NE 13 15 7 8 1012.8 1011.5 0.0
29/06:30pm 32.5 28.5 0.6 13 15.8 NNE 11 17 6 9 1012.4 1011.1 0.0
29/06:00pm 33.9 29.9 0.5 12 16.7 N 11 15 6 8 1012.1 1010.8 0.0
29/05:30pm 34.7 29.3 1.1 12 17.1 NE 19 26 10 14 1012.0 1010.7 0.0
29/05:00pm 35.1 29.5 1.5 12 17.2 NE 20 28 11 15 1011.7 1010.5 0.0
29/04:30pm 35.4 30.1 1.7 12 17.3 NNE 19 28 10 15 1011.6 1010.4 0.0
29/04:00pm 34.8 31.1 2.3 13 16.8 N 11 24 6 13 1011.7 1010.5 0.0
29/03:30pm 35.1 31.1 2.6 13 16.9 NNW 13 19 7 10 1012.0 1010.7 0.0
29/03:00pm 34.5 30.4 2.1 13 16.7 NW 13 22 7 12 1012.3 1011.0 0.0
29/02:30pm 34.4 30.3 2.0 13 16.7 NNW 13 28 7 15 1012.6 1011.3 0.0
29/02:00pm 34.6 29.7 2.2 13 16.7 N 17 28 9 15 1013.0 1011.8 0.0
29/01:30pm 33.3 29.0 1.2 13 16.2 NE 13 30 7 16 1013.5 1012.3 0.0
29/01:00pm 33.0 28.7 0.9 13 16.1 N 13 24 7 13 1013.9 1012.7 0.0
29/12:30pm 33.2 28.3 2.1 14 15.9 N 17 32 9 17 1014.3 1013.1 0.0
29/12:00pm 33.0 27.1 3.9 16 15.3 NNE 24 35 13 19 1014.9 1013.7 0.0
29/11:30am 32.9 26.9 5.5 18 14.8 NNE 26 37 14 20 1015.3 1014.1 0.0
29/11:00am 32.1 25.0 5.6 19 14.2 NNE 32 43 17 23 1015.6 1014.4 0.0
29/10:30am 30.7 24.1 4.4 19 13.8 NE 28 35 15 19 1016.1 1014.8 0.0
29/10:00am 30.3 24.2 4.9 20 13.4 NE 26 35 14 19 1016.4 1015.2 0.0
29/09:30am 29.0 23.7 5.1 22 12.5 NE 22 32 12 17 1016.4 1015.2 0.0
29/09:00am 27.4 22.2 3.8 22 12.0 NE 20 24 11 13 1016.5 1015.3 0.0
29/08:30am 25.8 21.0 2.5 22 11.4 NE 17 22 9 12 1016.5 1015.3 0.0
29/08:00am 24.3 19.6 1.2 22 10.9 NE 15 19 8 10 1016.3 1015.1 0.0
29/07:30am 21.7 18.3 -2.2 20 10.4 N 6 9 3 5 1016.1 1014.8 0.0
29/07:00am 19.3 15.4 -4.2 20 9.6 N 7 9 4 5 1015.5 1014.3 0.0
29/06:30am 17.5 13.1 -6.3 19 9.1 N 9 11 5 6 1015.1 1013.9 0.0
29/06:00am 18.1 13.6 -6.6 18 9.5 N 9 9 5 5 1014.9 1013.7 0.0
29/05:30am 17.1 12.9 -7.4 18 9.2 NW 7 9 4 5 1014.5 1013.3 0.0
29/05:00am 16.8 12.8 -7.6 18 9.1 WSW 6 7 3 4 1014.3 1013.1 0.0
29/04:30am 17.1 13.1 -8.1 17 9.3 WSW 6 7 3 4 1014.1 1012.9 0.0
29/04:00am 17.6 13.6 -7.7 17 9.5 W 6 7 3 4 1013.9 1012.7 0.0
29/03:30am 16.8 12.7 -8.4 17 9.2 W 6 9 3 5 1013.8 1012.6 0.0
29/03:00am 17.1 14.1 -9.7 15 9.5 CALM 0 0 0 0 1013.9 1012.7 0.0
29/02:30am 18.0 15.0 -9.0 15 9.9 CALM 0 0 0 0 1014.1 1012.9 0.0
29/02:00am 19.6 16.7 -8.6 14 10.6 CALM 0 0 0 0 1014.2 1013.0 0.0
29/01:30am 19.3 16.3 -9.8 13 10.6 CALM 0 0 0 0 1014.4 1013.2 0.0
29/01:00am 21.9 18.4 -6.8 14 11.4 E 4 6 2 3 1014.5 1013.3 0.0
29/12:30am 21.5 18.3 -7.1 14 11.3 E 2 6 1 3 1014.7 1013.5 0.0
29/12:00am 21.9 18.3 -7.7 13 11.6 ENE 4 7 2 4 1014.8 1013.6 0.0
 
Date/Time
EST
Temp
°C
App
Temp
°C
Dew
Point
Rel
Hum
%
Delta-T
°C
Wind Press
QNH
hPa
Press
MSL
hPa
Rain
since 9 am
mm
Dir
 
Spd
km/h
Gust
km/h
Spd
kts
Gust
kts
28/11:30pm 22.2 18.8 -5.6 15 11.4 SSE 4 6 2 3 1015.1 1013.9 0.0
28/11:00pm 22.2 19.2 -9.6 11 12.0 CALM 0 4 0 2 1015.3 1014.1 0.0
28/10:30pm 22.3 19.4 -8.4 12 11.9 CALM 0 0 0 0 1015.5 1014.3 0.0
28/10:00pm 23.8 19.7 -6.2 13 12.3 SE 7 9 4 5 1015.3 1014.1 0.0
28/09:30pm 25.3 20.9 -6.1 12 13.1 SSE 9 11 5 6 1015.2 1014.0 0.0
28/09:00pm 25.1 21.0 -6.3 12 13.0 S 7 11 4 6 1015.0 1013.8 0.0
28/08:30pm 26.0 21.9 -6.7 11 13.6 S 7 9 4 5 1014.7 1013.5 0.0
28/08:00pm 26.6 21.8 -6.2 11 13.8 S 11 13 6 7 1014.4 1013.2 0.0
28/07:30pm 28.9 26.2 -5.7 10 15.0 CALM 0 0 0 0 1014.2 1013.0 0.0
28/07:00pm 29.6 25.8 -5.2 10 15.3 SSW 6 6 3 3 1014.0 1012.8 0.0
28/06:30pm 31.3 27.5 -5.3 9 16.3 W 6 9 3 5 1013.8 1012.6 0.0
28/06:00pm 32.3 28.6 -4.6 9 16.8 E 6 9 3 5 1013.6 1012.4 0.0
28/05:30pm 33.0 28.8 -4.0 9 17.1 N 9 13 5 7 1013.4 1012.2 0.0
28/05:00pm 33.2 29.4 -3.9 9 17.2 NNW 7 13 4 7 1013.4 1012.2 0.0
28/04:30pm 33.3 28.4 -3.8 9 17.2 ENE 13 17 7 9 1013.3 1012.1 0.0
28/04:00pm 33.4 29.8 -3.7 9 17.3 W 6 19 3 10 1013.5 1012.3 0.0
28/03:30pm 32.8 29.1 -4.2 9 17.0 N 6 9 3 5 1013.6 1012.4 0.0
28/03:00pm 33.5 28.9 -3.7 9 17.3 S 11 17 6 9 1013.9 1012.7 0.0
28/02:30pm 33.2 29.6 -3.9 9 17.2 NE 6 11 3 6 1014.2 1013.0 0.0
28/02:00pm 32.4 28.1 -4.5 9 16.8 N 9 17 5 9 1014.7 1013.5 0.0
28/01:30pm 32.0 26.3 -3.4 10 16.4 E 17 22 9 12 1015.4 1014.2 0.0
28/01:00pm 31.4 26.5 -3.8 10 16.1 N 13 24 7 13 1016.0 1014.7 0.0
28/12:30pm 31.1 25.7 -4.1 10 16.0 ENE 15 24 8 13 1016.6 1015.4 0.0
28/12:00pm 30.2 24.9 -3.5 11 15.3 N 15 24 8 13 1017.2 1016.0 0.0
28/11:30am 30.8 26.7 -3.0 11 15.6 E 9 24 5 13 1017.6 1016.4 0.0
28/11:00am 30.0 26.3 -2.5 12 15.0 SE 7 17 4 9 1018.2 1017.0 0.0
28/10:30am 29.9 24.0 -2.6 12 15.0 E 19 24 10 13 1018.5 1017.3 0.0
28/10:00am 28.4 22.5 -2.6 13 14.1 NE 19 26 10 14 1018.9 1017.7 0.0
28/09:30am 27.9 22.4 -2.0 14 13.7 ENE 17 22 9 12 1019.0 1017.8 0.0
28/09:00am 25.1 20.2 -3.3 15 12.4 E 13 15 7 8 1019.0 1017.8 0.0
28/08:30am 23.8 19.6 -3.5 16 11.8 ENE 9 15 5 8 1019.0 1017.8 0.0
28/08:00am 21.6 18.4 -3.7 18 10.7 WNW 4 9 2 5 1018.7 1017.5 0.0
28/07:30am 18.7 14.5 -4.0 21 9.3 W 9 11 5 6 1018.3 1017.1 0.0
28/07:00am 15.6 11.8 -5.4 23 8.0 NW 6 9 3 5 1017.9 1016.7 0.0
28/06:30am 15.2 11.2 -5.2 24 7.8 NNW 7 9 4 5 1017.5 1016.3 0.0
28/06:00am 15.4 11.4 -5.6 23 8.0 N 7 11 4 6 1017.1 1015.9 0.0
28/05:30am 15.5 12.1 -5.5 23 8.0 N 4 7 2 4 1016.6 1015.4 0.0
28/05:00am 14.3 9.8 -7.1 22 7.8 ENE 9 11 5 6 1016.1 1014.8 0.0
28/04:30am 15.9 12.0 -4.6 24 8.0 E 7 9 4 5 1015.7 1014.5 0.0
28/04:00am 16.1 11.8 -5.0 23 8.2 ESE 9 13 5 7 1015.6 1014.4 0.0
28/03:30am 16.2 11.9 -4.9 23 8.2 E 9 11 5 6 1015.6 1014.4 0.0
28/03:00am 17.1 12.8 -4.8 22 8.6 ESE 9 11 5 6 1015.8 1014.6 0.0
28/02:30am 17.5 14.1 -5.0 21 8.9 E 4 11 2 6 1015.8 1014.6 0.0
28/02:00am 18.2 15.6 -4.5 21 9.1 CALM 0 0 0 0 1016.4 1015.2 0.0
28/01:30am 19.1 14.2 -3.7 21 9.4 ESE 13 15 7 8 1016.5 1015.3 0.0
28/01:00am 20.0 14.9 -2.3 22 9.5 SE 15 19 8 10 1016.7 1015.5 0.0
28/12:30am 19.9 15.3 -1.2 24 9.2 SE 13 15 7 8 1017.1 1015.9 0.0
28/12:00am 20.0 15.4 -4.3 19 10.0 S 11 13 6 7 1017.4 1016.2 0.0
 
Date/Time
EST
Temp
°C
App
Temp
°C
Dew
Point
Rel
Hum
%
Delta-T
°C
Wind Press
QNH
hPa
Press
MSL
hPa
Rain
since 9 am
mm
Dir
 
Spd
km/h
Gust
km/h
Spd
kts
Gust
kts
27/11:30pm 21.4 16.6 -2.5 20 10.3 SSE 13 13 7 7 1017.6 1016.4 0.0
27/11:00pm 21.5 16.7 -2.4 20 10.3 SSE 13 15 7 8 1017.7 1016.5 0.0
27/10:30pm 22.0 16.9 -2.0 20 10.5 SSE 15 17 8 9 1017.8 1016.6 0.0
27/10:00pm 22.4 17.7 -1.6 20 10.6 SSE 13 17 7 9 1017.7 1016.5 0.0

Other Formats:

Comma delimited format used in spreadsheet applications
http://www.bom.gov.au/fwo/IDQ60801/IDQ60801.94338.axf

JavaScript Object Notation format (JSON) in row-major order
http://www.bom.gov.au/fwo/IDQ60801/IDQ60801.94338.json